sensor_id;sensor_type;location;lat;lon;timestamp;pressure;altitude;pressure_sealevel;temperature;humidity
68988;BME280;56038;46.080;11.116;2023-01-25T00:04:55;100603.81;;;5.68;62.04
68988;BME280;56038;46.080;11.116;2023-01-25T00:09:58;100590.84;;;5.65;62.18
68988;BME280;56038;46.080;11.116;2023-01-25T00:15:00;100595.22;;;5.54;62.20
68988;BME280;56038;46.080;11.116;2023-01-25T00:20:01;100589.13;;;5.50;62.92
68988;BME280;56038;46.080;11.116;2023-01-25T00:25:05;100590.03;;;5.38;62.36
68988;BME280;56038;46.080;11.116;2023-01-25T00:30:08;100585.69;;;5.28;62.98
68988;BME280;56038;46.080;11.116;2023-01-25T00:35:10;100572.75;;;5.21;62.87
68988;BME280;56038;46.080;11.116;2023-01-25T00:40:14;100572.75;;;5.25;63.08
68988;BME280;56038;46.080;11.116;2023-01-25T00:45:16;100577.03;;;5.31;63.27
68988;BME280;56038;46.080;11.116;2023-01-25T00:50:18;100584.81;;;5.26;62.53
68988;BME280;56038;46.080;11.116;2023-01-25T00:55:21;100587.38;;;5.20;62.13
68988;BME280;56038;46.080;11.116;2023-01-25T01:00:23;100577.03;;;5.16;62.98
68988;BME280;56038;46.080;11.116;2023-01-25T01:05:29;100585.66;;;5.19;63.78
68988;BME280;56038;46.080;11.116;2023-01-25T01:10:32;100591.72;;;5.15;63.03
68988;BME280;56038;46.080;11.116;2023-01-25T01:15:34;100596.88;;;5.18;63.05
68988;BME280;56038;46.080;11.116;2023-01-25T01:20:36;100577.91;;;5.22;62.70
68988;BME280;56038;46.080;11.116;2023-01-25T01:25:40;100588.25;;;5.19;62.66
68988;BME280;56038;46.080;11.116;2023-01-25T01:30:44;100577.03;;;5.20;62.78
68988;BME280;56038;46.080;11.116;2023-01-25T01:35:46;100564.09;;;5.17;63.09
68988;BME280;56038;46.080;11.116;2023-01-25T01:40:50;100563.22;;;5.18;62.29
68988;BME280;56038;46.080;11.116;2023-01-25T01:45:54;100556.34;;;5.22;62.91
68988;BME280;56038;46.080;11.116;2023-01-25T01:50:59;100554.59;;;5.28;62.74
68988;BME280;56038;46.080;11.116;2023-01-25T01:56:04;100551.13;;;5.20;64.98
68988;BME280;56038;46.080;11.116;2023-01-25T02:01:08;100551.13;;;5.08;63.04
68988;BME280;56038;46.080;11.116;2023-01-25T02:06:13;100547.69;;;5.06;63.35
68988;BME280;56038;46.080;11.116;2023-01-25T02:11:18;100538.16;;;5.03;63.37
68988;BME280;56038;46.080;11.116;2023-01-25T02:16:23;100534.72;;;5.03;63.14
68988;BME280;56038;46.080;11.116;2023-01-25T02:21:26;100526.09;;;4.99;63.18
68988;BME280;56038;46.080;11.116;2023-01-25T02:26:32;100530.41;;;4.99;63.00
68988;BME280;56038;46.080;11.116;2023-01-25T02:31:34;100517.47;;;4.99;62.97
68988;BME280;56038;46.080;11.116;2023-01-25T02:36:36;100517.47;;;4.99;62.82
68988;BME280;56038;46.080;11.116;2023-01-25T02:41:41;100514.00;;;4.95;63.53
68988;BME280;56038;46.080;11.116;2023-01-25T02:46:44;100513.13;;;4.89;63.94
68988;BME280;56038;46.080;11.116;2023-01-25T02:51:50;100507.09;;;4.91;63.98
68988;BME280;56038;46.080;11.116;2023-01-25T02:56:56;100508.84;;;4.89;63.06
68988;BME280;56038;46.080;11.116;2023-01-25T03:01:58;100497.59;;;4.89;63.40
68988;BME280;56038;46.080;11.116;2023-01-25T03:07:00;100482.91;;;4.88;63.43
68988;BME280;56038;46.080;11.116;2023-01-25T03:12:04;100482.91;;;4.83;63.58
68988;BME280;56038;46.080;11.116;2023-01-25T03:17:06;100489.84;;;4.76;63.87
68988;BME280;56038;46.080;11.116;2023-01-25T03:22:08;100482.06;;;4.73;64.34
68988;BME280;56038;46.080;11.116;2023-01-25T03:27:11;100480.34;;;4.77;63.43
68988;BME280;56038;46.080;11.116;2023-01-25T03:32:13;100479.47;;;4.75;63.98
68988;BME280;56038;46.080;11.116;2023-01-25T03:37:15;100486.34;;;4.65;64.32
68988;BME280;56038;46.080;11.116;2023-01-25T03:42:20;100489.81;;;4.58;64.25
68988;BME280;56038;46.080;11.116;2023-01-25T03:47:22;100493.22;;;4.49;64.58
68988;BME280;56038;46.080;11.116;2023-01-25T03:52:24;100478.56;;;4.44;64.67
68988;BME280;56038;46.080;11.116;2023-01-25T03:57:34;100482.00;;;4.46;64.31
68988;BME280;56038;46.080;11.116;2023-01-25T04:02:36;100475.97;;;4.42;65.06
68988;BME280;56038;46.080;11.116;2023-01-25T04:07:38;100476.78;;;4.40;65.12
68988;BME280;56038;46.080;11.116;2023-01-25T04:12:41;100469.03;;;4.41;64.94
68988;BME280;56038;46.080;11.116;2023-01-25T04:17:43;100469.91;;;4.36;64.89
68988;BME280;56038;46.080;11.116;2023-01-25T04:22:45;100463.84;;;4.31;65.03
68988;BME280;56038;46.080;11.116;2023-01-25T04:27:48;100467.31;;;4.31;64.76
68988;BME280;56038;46.080;11.116;2023-01-25T04:32:50;100453.50;;;4.29;65.01
68988;BME280;56038;46.080;11.116;2023-01-25T04:37:53;100452.66;;;4.32;64.95
68988;BME280;56038;46.080;11.116;2023-01-25T04:42:57;100462.97;;;4.22;65.47
68988;BME280;56038;46.080;11.116;2023-01-25T04:48:01;100456.88;;;4.08;65.93
68988;BME280;56038;46.080;11.116;2023-01-25T04:53:03;100458.59;;;4.03;66.25
68988;BME280;56038;46.080;11.116;2023-01-25T04:58:07;100457.72;;;4.00;66.42
68988;BME280;56038;46.080;11.116;2023-01-25T05:03:08;100457.69;;;3.92;67.13
68988;BME280;56038;46.080;11.116;2023-01-25T05:08:10;100457.72;;;3.95;66.67
68988;BME280;56038;46.080;11.116;2023-01-25T05:13:13;100455.09;;;3.94;66.69
68988;BME280;56038;46.080;11.116;2023-01-25T05:18:15;100462.03;;;3.95;66.65
68988;BME280;56038;46.080;11.116;2023-01-25T05:23:17;100468.06;;;3.98;66.38
68988;BME280;56038;46.080;11.116;2023-01-25T05:28:20;100456.88;;;4.02;66.32
68988;BME280;56038;46.080;11.116;2023-01-25T05:33:22;100455.19;;;4.10;65.65
68988;BME280;56038;46.080;11.116;2023-01-25T05:38:23;100446.56;;;4.13;65.75
68988;BME280;56038;46.080;11.116;2023-01-25T05:43:27;100448.31;;;4.15;65.89
68988;BME280;56038;46.080;11.116;2023-01-25T05:48:28;100449.16;;;4.20;65.82
68988;BME280;56038;46.080;11.116;2023-01-25T05:53:30;100453.47;;;4.21;66.20
68988;BME280;56038;46.080;11.116;2023-01-25T05:58:33;100458.66;;;4.20;65.73
68988;BME280;56038;46.080;11.116;2023-01-25T06:03:35;100453.47;;;4.15;66.11
68988;BME280;56038;46.080;11.116;2023-01-25T06:08:37;100447.41;;;4.09;66.34
68988;BME280;56038;46.080;11.116;2023-01-25T06:13:40;100451.69;;;4.05;66.58
68988;BME280;56038;46.080;11.116;2023-01-25T06:18:42;100440.50;;;4.08;66.00
68988;BME280;56038;46.080;11.116;2023-01-25T06:23:44;100439.63;;;4.09;65.62
68988;BME280;56038;46.080;11.116;2023-01-25T06:28:47;100439.69;;;4.10;65.82
68988;BME280;56038;46.080;11.116;2023-01-25T06:33:50;100430.19;;;4.14;65.70
68988;BME280;56038;46.080;11.116;2023-01-25T06:38:52;100431.06;;;4.11;65.60
68988;BME280;56038;46.080;11.116;2023-01-25T06:43:55;100418.13;;;4.11;65.80
68988;BME280;56038;46.080;11.116;2023-01-25T06:48:57;100419.84;;;4.12;65.63
68988;BME280;56038;46.080;11.116;2023-01-25T06:54:01;100420.72;;;4.14;65.39
68988;BME280;56038;46.080;11.116;2023-01-25T06:59:04;100425.88;;;4.19;65.38
68988;BME280;56038;46.080;11.116;2023-01-25T07:04:08;100419.00;;;4.22;65.25
68988;BME280;56038;46.080;11.116;2023-01-25T07:09:12;100416.41;;;4.26;65.44
68988;BME280;56038;46.080;11.116;2023-01-25T07:14:16;100407.78;;;4.25;65.60
68988;BME280;56038;46.080;11.116;2023-01-25T07:19:18;100401.78;;;4.34;66.41
68988;BME280;56038;46.080;11.116;2023-01-25T07:24:20;100396.63;;;4.32;65.21
68988;BME280;56038;46.080;11.116;2023-01-25T07:29:27;100400.94;;;4.29;67.27
68988;BME280;56038;46.080;11.116;2023-01-25T07:34:29;100402.63;;;4.24;64.90
68988;BME280;56038;46.080;11.116;2023-01-25T07:39:31;100387.09;;;4.25;65.28
68988;BME280;56038;46.080;11.116;2023-01-25T07:44:34;100375.03;;;4.16;65.78
68988;BME280;56038;46.080;11.116;2023-01-25T07:49:36;100367.28;;;4.12;65.80
68988;BME280;56038;46.080;11.116;2023-01-25T07:54:37;100366.38;;;4.08;65.92
68988;BME280;56038;46.080;11.116;2023-01-25T07:59:40;100375.03;;;4.13;66.07
68988;BME280;56038;46.080;11.116;2023-01-25T08:04:42;100366.44;;;4.30;66.27
68988;BME280;56038;46.080;11.116;2023-01-25T08:09:45;100378.53;;;4.46;65.61
68988;BME280;56038;46.080;11.116;2023-01-25T08:14:48;100375.06;;;4.71;65.04
68988;BME280;56038;46.080;11.116;2023-01-25T08:19:50;100359.53;;;4.96;63.89
68988;BME280;56038;46.080;11.116;2023-01-25T08:24:52;100355.16;;;5.16;63.89
68988;BME280;56038;46.080;11.116;2023-01-25T08:29:55;100369.78;;;5.45;63.32
68988;BME280;56038;46.080;11.116;2023-01-25T08:34:56;100380.84;;;5.82;62.21
68988;BME280;56038;46.080;11.116;2023-01-25T08:39:58;100373.78;;;6.17;61.92
68988;BME280;56038;46.080;11.116;2023-01-25T08:45:01;100364.72;;;6.73;60.18
68988;BME280;56038;46.080;11.116;2023-01-25T08:50:04;100368.34;;;7.43;58.38
68988;BME280;56038;46.080;11.116;2023-01-25T08:55:07;100352.69;;;8.14;56.72
68988;BME280;56038;46.080;11.116;2023-01-25T09:00:11;100359.13;;;9.00;54.08
68988;BME280;56038;46.080;11.116;2023-01-25T09:05:13;100342.13;;;10.48;50.52
68988;BME280;56038;46.080;11.116;2023-01-25T09:10:16;100342.06;;;10.85;49.10
68988;BME280;56038;46.080;11.116;2023-01-25T09:15:19;100341.22;;;11.17;48.27
68988;BME280;56038;46.080;11.116;2023-01-25T09:20:22;100340.16;;;11.24;47.22
68988;BME280;56038;46.080;11.116;2023-01-25T09:25:24;100336.22;;;11.09;47.69
68988;BME280;56038;46.080;11.116;2023-01-25T09:30:27;100327.19;;;11.21;46.70
68988;BME280;56038;46.080;11.116;2023-01-25T09:35:29;100308.22;;;11.74;45.35
68988;BME280;56038;46.080;11.116;2023-01-25T09:40:37;100307.91;;;11.86;43.48
68988;BME280;56038;46.080;11.116;2023-01-25T09:45:43;100309.63;;;12.93;43.12
68988;BME280;56038;46.080;11.116;2023-01-25T09:51:04;100296.16;;;13.28;39.83
68988;BME280;56038;46.080;11.116;2023-01-25T09:56:13;100283.91;;;13.29;40.06
68988;BME280;56038;46.080;11.116;2023-01-25T10:01:27;100274.03;;;14.68;37.37
68988;BME280;56038;46.080;11.116;2023-01-25T10:06:37;100284.00;;;14.38;39.41
68988;BME280;56038;46.080;11.116;2023-01-25T10:11:39;100283.31;;;14.33;39.21
68988;BME280;56038;46.080;11.116;2023-01-25T10:17:00;100263.84;;;14.38;36.70
68988;BME280;56038;46.080;11.116;2023-01-25T10:22:07;100260.91;;;15.07;37.19
68988;BME280;56038;46.080;11.116;2023-01-25T10:27:20;100244.56;;;16.13;35.04
68988;BME280;56038;46.080;11.116;2023-01-25T10:32:28;100231.75;;;16.40;35.68
68988;BME280;56038;46.080;11.116;2023-01-25T10:37:31;100240.06;;;15.03;34.04
68988;BME280;56038;46.080;11.116;2023-01-25T10:42:38;100221.13;;;13.46;40.02
68988;BME280;56038;46.080;11.116;2023-01-25T10:47:46;100215.19;;;13.17;40.52
68988;BME280;56038;46.080;11.116;2023-01-25T10:52:56;100214.91;;;13.02;40.24
68988;BME280;56038;46.080;11.116;2023-01-25T10:57:58;100214.03;;;13.01;41.42
68988;BME280;56038;46.080;11.116;2023-01-25T11:03:01;100199.34;;;12.97;41.13
68988;BME280;56038;46.080;11.116;2023-01-25T11:08:20;100179.16;;;13.46;40.54
68988;BME280;56038;46.080;11.116;2023-01-25T11:13:25;100173.41;;;14.43;39.14
68988;BME280;56038;46.080;11.116;2023-01-25T11:18:29;100170.94;;;15.18;36.41
68988;BME280;56038;46.080;11.116;2023-01-25T11:23:33;100157.41;;;14.49;37.47
68988;BME280;56038;46.080;11.116;2023-01-25T11:28:35;100142.41;;;14.71;37.58
68988;BME280;56038;46.080;11.116;2023-01-25T11:33:38;100136.50;;;14.05;38.25
68988;BME280;56038;46.080;11.116;2023-01-25T11:38:50;100116.00;;;15.29;35.70
68988;BME280;56038;46.080;11.116;2023-01-25T11:44:08;100114.44;;;16.32;34.13
68988;BME280;56038;46.080;11.116;2023-01-25T11:49:19;100094.38;;;15.41;34.43
68988;BME280;56038;46.080;11.116;2023-01-25T11:54:44;100081.59;;;15.34;35.04
68988;BME280;56038;46.080;11.116;2023-01-25T12:00:01;100062.84;;;16.10;33.59
68988;BME280;56038;46.080;11.116;2023-01-25T12:05:20;100044.50;;;16.42;32.75
68988;BME280;56038;46.080;11.116;2023-01-25T12:10:34;100025.06;;;17.23;32.04
68988;BME280;56038;46.080;11.116;2023-01-25T12:16:00;100007.06;;;17.60;31.21
68988;BME280;56038;46.080;11.116;2023-01-25T12:21:10;99992.88;;;18.76;30.08
68988;BME280;56038;46.080;11.116;2023-01-25T12:26:22;99975.63;;;18.28;30.29
68988;BME280;56038;46.080;11.116;2023-01-25T12:31:34;99960.72;;;17.84;30.42
68988;BME280;56038;46.080;11.116;2023-01-25T12:36:42;99944.84;;;18.13;29.90
68988;BME280;56038;46.080;11.116;2023-01-25T12:41:47;99935.13;;;18.13;30.56
68988;BME280;56038;46.080;11.116;2023-01-25T12:46:55;99924.19;;;18.61;30.07
68988;BME280;56038;46.080;11.116;2023-01-25T12:52:05;99921.53;;;18.61;29.86
68988;BME280;56038;46.080;11.116;2023-01-25T12:57:16;99905.59;;;18.89;29.14
68988;BME280;56038;46.080;11.116;2023-01-25T13:02:36;99892.69;;;17.44;31.90
68988;BME280;56038;46.080;11.116;2023-01-25T13:07:49;99880.69;;;17.68;32.12
68988;BME280;56038;46.080;11.116;2023-01-25T13:12:55;99883.69;;;16.25;34.25
68988;BME280;56038;46.080;11.116;2023-01-25T13:17:58;99874.75;;;15.45;35.62
68988;BME280;56038;46.080;11.116;2023-01-25T13:23:02;99867.03;;;13.81;37.11
68988;BME280;56038;46.080;11.116;2023-01-25T13:28:40;99853.47;;;13.71;37.94
68988;BME280;56038;46.080;11.116;2023-01-25T13:33:42;99857.34;;;13.23;38.89
68988;BME280;56038;46.080;11.116;2023-01-25T13:38:45;99861.59;;;13.46;39.07
68988;BME280;56038;46.080;11.116;2023-01-25T13:43:54;99844.47;;;12.97;39.51
68988;BME280;56038;46.080;11.116;2023-01-25T13:49:17;99839.03;;;13.22;38.85
68988;BME280;56038;46.080;11.116;2023-01-25T13:54:23;99839.94;;;13.41;38.92
68988;BME280;56038;46.080;11.116;2023-01-25T13:59:26;99850.28;;;12.83;40.04
68988;BME280;56038;46.080;11.116;2023-01-25T14:04:28;99836.44;;;12.15;41.17
68988;BME280;56038;46.080;11.116;2023-01-25T14:09:33;99842.03;;;12.06;41.63
68988;BME280;56038;46.080;11.116;2023-01-25T14:14:34;99847.53;;;11.98;41.94
68988;BME280;56038;46.080;11.116;2023-01-25T14:19:38;99840.13;;;12.10;41.81
68988;BME280;56038;46.080;11.116;2023-01-25T14:24:43;99837.91;;;11.99;41.67
68988;BME280;56038;46.080;11.116;2023-01-25T14:29:47;99837.41;;;11.66;42.25
68988;BME280;56038;46.080;11.116;2023-01-25T14:34:49;99833.13;;;11.15;44.51
68988;BME280;56038;46.080;11.116;2023-01-25T14:39:52;99835.66;;;10.67;47.03
68988;BME280;56038;46.080;11.116;2023-01-25T14:44:54;99842.44;;;10.18;49.43
68988;BME280;56038;46.080;11.116;2023-01-25T14:50:33;99835.63;;;9.84;52.98
68988;BME280;56038;46.080;11.116;2023-01-25T14:55:36;99831.16;;;9.58;52.77
68988;BME280;56038;46.080;11.116;2023-01-25T15:00:38;99824.56;;;9.45;53.19
68988;BME280;56038;46.080;11.116;2023-01-25T15:05:44;99827.84;;;9.22;56.00
68988;BME280;56038;46.080;11.116;2023-01-25T15:10:52;99831.88;;;9.02;57.67
68988;BME280;56038;46.080;11.116;2023-01-25T15:15:56;99827.13;;;8.83;57.52
68988;BME280;56038;46.080;11.116;2023-01-25T15:20:58;99826.47;;;8.75;57.01
68988;BME280;56038;46.080;11.116;2023-01-25T15:26:01;99831.25;;;8.58;58.75
68988;BME280;56038;46.080;11.116;2023-01-25T15:31:16;99822.06;;;8.43;61.94
68988;BME280;56038;46.080;11.116;2023-01-25T15:36:18;99827.41;;;8.38;59.35
68988;BME280;56038;46.080;11.116;2023-01-25T15:41:21;99836.25;;;8.28;60.21
68988;BME280;56038;46.080;11.116;2023-01-25T15:46:25;99845.09;;;8.23;60.85
68988;BME280;56038;46.080;11.116;2023-01-25T15:51:28;99835.81;;;8.11;60.54
68988;BME280;56038;46.080;11.116;2023-01-25T15:56:35;99839.44;;;8.02;61.85
68988;BME280;56038;46.080;11.116;2023-01-25T16:01:37;99840.53;;;7.94;64.92
68988;BME280;56038;46.080;11.116;2023-01-25T16:06:40;99850.19;;;7.87;62.20
68988;BME280;56038;46.080;11.116;2023-01-25T16:11:44;99850.28;;;7.82;62.52
68988;BME280;56038;46.080;11.116;2023-01-25T16:16:48;99853.03;;;7.76;62.32
68988;BME280;56038;46.080;11.116;2023-01-25T16:21:50;99851.38;;;7.72;62.26
68988;BME280;56038;46.080;11.116;2023-01-25T16:26:55;99849.88;;;7.62;63.57
68988;BME280;56038;46.080;11.116;2023-01-25T16:31:58;99857.63;;;7.64;62.40
68988;BME280;56038;46.080;11.116;2023-01-25T16:36:59;99851.59;;;7.62;62.36
68988;BME280;56038;46.080;11.116;2023-01-25T16:42:03;99852.56;;;7.56;62.74
68988;BME280;56038;46.080;11.116;2023-01-25T16:47:04;99860.66;;;7.42;62.97
68988;BME280;56038;46.080;11.116;2023-01-25T16:52:06;99860.78;;;7.36;63.25
68988;BME280;56038;46.080;11.116;2023-01-25T16:57:10;99860.00;;;7.31;63.50
68988;BME280;56038;46.080;11.116;2023-01-25T17:02:11;99864.50;;;7.21;63.88
68988;BME280;56038;46.080;11.116;2023-01-25T17:07:13;99869.03;;;7.12;64.58
68988;BME280;56038;46.080;11.116;2023-01-25T17:12:16;99863.97;;;7.04;65.16
68988;BME280;56038;46.080;11.116;2023-01-25T17:17:18;99867.53;;;6.99;64.79
68988;BME280;56038;46.080;11.116;2023-01-25T17:22:21;99861.50;;;6.98;64.88
68988;BME280;56038;46.080;11.116;2023-01-25T17:27:24;99866.66;;;7.00;63.71
68988;BME280;56038;46.080;11.116;2023-01-25T17:32:26;99875.31;;;7.00;64.08
68988;BME280;56038;46.080;11.116;2023-01-25T17:37:28;99865.81;;;6.98;63.31
68988;BME280;56038;46.080;11.116;2023-01-25T17:42:31;99867.63;;;6.93;63.36
68988;BME280;56038;46.080;11.116;2023-01-25T17:47:33;99865.97;;;6.88;63.73
68988;BME280;56038;46.080;11.116;2023-01-25T17:52:35;99858.25;;;6.85;63.72
68988;BME280;56038;46.080;11.116;2023-01-25T17:57:38;99859.50;;;6.61;64.46
68988;BME280;56038;46.080;11.116;2023-01-25T18:02:42;99855.31;;;6.54;64.25
68988;BME280;56038;46.080;11.116;2023-01-25T18:07:44;99862.19;;;6.55;65.92
68988;BME280;56038;46.080;11.116;2023-01-25T18:12:47;99852.28;;;6.25;65.86
68988;BME280;56038;46.080;11.116;2023-01-25T18:17:50;99848.81;;;6.26;64.96
68988;BME280;56038;46.080;11.116;2023-01-25T18:22:52;99846.41;;;6.12;65.58
68988;BME280;56038;46.080;11.116;2023-01-25T18:27:55;99848.13;;;6.13;65.80
68988;BME280;56038;46.080;11.116;2023-01-25T18:32:57;99846.31;;;6.20;65.52
68988;BME280;56038;46.080;11.116;2023-01-25T18:37:59;99830.72;;;6.23;65.71
68988;BME280;56038;46.080;11.116;2023-01-25T18:43:02;99830.66;;;6.26;65.32
68988;BME280;56038;46.080;11.116;2023-01-25T18:48:04;99835.78;;;6.29;65.53
68988;BME280;56038;46.080;11.116;2023-01-25T18:53:06;99843.56;;;6.29;65.21
68988;BME280;56038;46.080;11.116;2023-01-25T18:58:10;99823.66;;;6.31;65.23
68988;BME280;56038;46.080;11.116;2023-01-25T19:03:14;99820.84;;;6.45;64.46
68988;BME280;56038;46.080;11.116;2023-01-25T19:08:16;99819.84;;;6.53;64.37
68988;BME280;56038;46.080;11.116;2023-01-25T19:13:19;99809.31;;;6.61;64.46
68988;BME280;56038;46.080;11.116;2023-01-25T19:18:21;99809.22;;;6.69;64.32
68988;BME280;56038;46.080;11.116;2023-01-25T19:23:23;99806.66;;;6.66;64.66
68988;BME280;56038;46.080;11.116;2023-01-25T19:28:27;99799.91;;;6.55;65.12
68988;BME280;56038;46.080;11.116;2023-01-25T19:33:29;99800.81;;;6.53;65.03
68988;BME280;56038;46.080;11.116;2023-01-25T19:38:31;99791.19;;;6.59;64.95
68988;BME280;56038;46.080;11.116;2023-01-25T19:43:34;99781.88;;;6.48;66.75
68988;BME280;56038;46.080;11.116;2023-01-25T19:48:37;99771.69;;;6.37;67.16
68988;BME280;56038;46.080;11.116;2023-01-25T19:53:40;99774.16;;;6.43;66.18
68988;BME280;56038;46.080;11.116;2023-01-25T19:58:47;99768.91;;;6.48;66.48
68988;BME280;56038;46.080;11.116;2023-01-25T20:03:50;99771.44;;;6.51;66.15
68988;BME280;56038;46.080;11.116;2023-01-25T20:08:52;99766.94;;;6.60;65.58
68988;BME280;56038;46.080;11.116;2023-01-25T20:13:57;99756.56;;;6.60;65.80
68988;BME280;56038;46.080;11.116;2023-01-25T20:19:00;99746.16;;;6.64;65.93
68988;BME280;56038;46.080;11.116;2023-01-25T20:24:03;99748.03;;;6.54;66.87
68988;BME280;56038;46.080;11.116;2023-01-25T20:29:07;99736.75;;;6.56;66.77
68988;BME280;56038;46.080;11.116;2023-01-25T20:34:12;99732.38;;;6.58;66.29
68988;BME280;56038;46.080;11.116;2023-01-25T20:39:15;99736.63;;;6.63;65.79
68988;BME280;56038;46.080;11.116;2023-01-25T20:44:18;99728.03;;;6.59;65.96
68988;BME280;56038;46.080;11.116;2023-01-25T20:49:20;99725.53;;;6.54;66.06
68988;BME280;56038;46.080;11.116;2023-01-25T20:54:22;99716.06;;;6.52;66.22
68988;BME280;56038;46.080;11.116;2023-01-25T20:59:25;99721.34;;;6.47;66.09
68988;BME280;56038;46.080;11.116;2023-01-25T21:04:27;99714.44;;;6.46;66.69
68988;BME280;56038;46.080;11.116;2023-01-25T21:09:29;99705.88;;;6.41;66.51
68988;BME280;56038;46.080;11.116;2023-01-25T21:14:32;99706.75;;;6.40;66.34
68988;BME280;56038;46.080;11.116;2023-01-25T21:19:34;99697.19;;;6.44;66.55
68988;BME280;56038;46.080;11.116;2023-01-25T21:24:36;99700.66;;;6.43;66.87
68988;BME280;56038;46.080;11.116;2023-01-25T21:29:39;99695.50;;;6.41;66.00
68988;BME280;56038;46.080;11.116;2023-01-25T21:34:41;99695.63;;;6.35;66.09
68988;BME280;56038;46.080;11.116;2023-01-25T21:39:43;99700.00;;;6.32;66.76
68988;BME280;56038;46.080;11.116;2023-01-25T21:44:46;99689.69;;;6.27;66.54
68988;BME280;56038;46.080;11.116;2023-01-25T21:50:07;99681.16;;;6.22;66.94
68988;BME280;56038;46.080;11.116;2023-01-25T21:55:26;99687.97;;;6.26;67.06
68988;BME280;56038;46.080;11.116;2023-01-25T22:00:29;99681.09;;;6.25;66.54
68988;BME280;56038;46.080;11.116;2023-01-25T22:05:32;99677.66;;;6.23;67.01
68988;BME280;56038;46.080;11.116;2023-01-25T22:10:34;99674.34;;;6.15;66.52
68988;BME280;56038;46.080;11.116;2023-01-25T22:15:37;99670.22;;;6.05;67.23
68988;BME280;56038;46.080;11.116;2023-01-25T22:20:39;99674.72;;;5.93;67.61
68988;BME280;56038;46.080;11.116;2023-01-25T22:25:41;99663.72;;;5.76;67.84
68988;BME280;56038;46.080;11.116;2023-01-25T22:30:45;99662.91;;;5.74;67.46
68988;BME280;56038;46.080;11.116;2023-01-25T22:35:47;99662.19;;;5.64;67.63
68988;BME280;56038;46.080;11.116;2023-01-25T22:40:49;99659.81;;;5.49;67.43
68988;BME280;56038;46.080;11.116;2023-01-25T22:45:52;99658.19;;;5.44;67.42
68988;BME280;56038;46.080;11.116;2023-01-25T22:50:59;99652.91;;;5.50;67.04
68988;BME280;56038;46.080;11.116;2023-01-25T22:56:02;99644.31;;;5.48;66.23
68988;BME280;56038;46.080;11.116;2023-01-25T23:01:09;99643.53;;;5.43;65.76
68988;BME280;56038;46.080;11.116;2023-01-25T23:06:11;99640.03;;;5.45;66.73
68988;BME280;56038;46.080;11.116;2023-01-25T23:11:18;99631.47;;;5.41;65.78
68988;BME280;56038;46.080;11.116;2023-01-25T23:16:21;99622.84;;;5.39;64.86
68988;BME280;56038;46.080;11.116;2023-01-25T23:21:25;99618.56;;;5.35;64.69
68988;BME280;56038;46.080;11.116;2023-01-25T23:26:27;99618.56;;;5.38;65.17
68988;BME280;56038;46.080;11.116;2023-01-25T23:31:38;99603.84;;;5.40;64.69
68988;BME280;56038;46.080;11.116;2023-01-25T23:36:39;99598.69;;;5.39;65.11
68988;BME280;56038;46.080;11.116;2023-01-25T23:41:41;99599.56;;;5.36;64.37
68988;BME280;56038;46.080;11.116;2023-01-25T23:46:44;99588.34;;;5.37;64.89
68988;BME280;56038;46.080;11.116;2023-01-25T23:51:47;99590.13;;;5.34;64.27
68988;BME280;56038;46.080;11.116;2023-01-25T23:56:48;99574.66;;;5.29;64.46
